Time;durP1;ratioP1;P1;durP2;ratioP2;P2;SDS_P1;SDS_P2;PMS_P1;PMS_P2;Temp;Humidity;BMP_temperature;BMP_pressure;BME280_temperature;BME280_humidity;BME280_pressure;Samples;Min_cycle;Max_cycle;Signal;HPM_P1;HPM_P2
2023/01/09 00:00:16;;;;;;;43.93;32.17;;;;;;;3.46;58.29;95202.94;5019031;28;20243;-65
2023/01/09 00:02:43;;;;;;;44.83;32.27;;;;;;;3.39;58.75;95198.28;5002309;28;20223;-65
2023/01/09 00:05:14;;;;;;;43.93;31.90;;;;;;;3.01;59.81;95199.91;5000905;28;20228;-64
2023/01/09 00:07:40;;;;;;;42.13;32.37;;;;;;;3.12;59.58;95199.19;4986149;28;20223;-64
2023/01/09 00:10:06;;;;;;;45.50;32.40;;;;;;;3.14;59.44;95199.09;4985366;28;20191;-64
2023/01/09 00:12:33;;;;;;;43.57;31.40;;;;;;;3.17;58.90;95196.28;5003533;28;20213;-64
2023/01/09 00:14:58;;;;;;;47.67;34.03;;;;;;;3.18;58.63;95196.19;5020799;28;20259;-64
2023/01/09 00:17:24;;;;;;;43.47;32.57;;;;;;;3.05;59.36;95190.97;4996498;28;20327;-65
2023/01/09 00:19:49;;;;;;;43.03;30.83;;;;;;;3.08;59.22;95182.97;4993827;28;20227;-65
2023/01/09 00:22:15;;;;;;;42.70;32.03;;;;;;;3.01;59.29;95191.28;5006868;28;20195;-64
2023/01/09 00:24:40;;;;;;;42.17;32.93;;;;;;;3.08;59.26;95182.97;5007490;28;20175;-65
2023/01/09 00:27:06;;;;;;;45.20;32.40;;;;;;;3.13;58.94;95190.47;5006462;28;20219;-64
2023/01/09 00:29:31;;;;;;;42.20;32.57;;;;;;;3.14;58.89;95186.09;5009136;28;20302;-64
2023/01/09 00:31:57;;;;;;;45.20;31.43;;;;;;;3.12;59.16;95191.38;5007074;28;20223;-64
2023/01/09 00:34:22;;;;;;;42.30;32.33;;;;;;;2.95;59.24;95189.09;5012670;28;20231;-64
2023/01/09 00:36:48;;;;;;;47.10;31.23;;;;;;;3.01;59.35;95194.69;5017617;28;20259;-63
2023/01/09 00:39:14;;;;;;;46.90;32.53;;;;;;;2.79;59.53;95190.09;4995438;28;20215;-63
2023/01/09 00:41:44;;;;;;;44.80;32.97;;;;;;;2.83;60.05;95188.97;5011702;28;20219;-63
2023/01/09 00:44:26;;;;;;;46.53;32.67;;;;;;;2.95;59.24;95182.13;5023788;28;20210;-63
2023/01/09 00:46:58;;;;;;;41.33;31.83;;;;;;;2.89;59.58;95182.53;5009667;28;20222;-63
2023/01/09 00:49:24;;;;;;;44.57;32.13;;;;;;;2.98;59.28;95176.72;5006925;28;20222;-64
2023/01/09 00:51:52;;;;;;;46.17;33.13;;;;;;;2.78;60.94;95185.84;5010626;28;20202;-63
2023/01/09 00:54:18;;;;;;;44.63;30.70;;;;;;;2.97;60.02;95190.66;5010266;28;20231;-64
2023/01/09 00:56:44;;;;;;;42.83;32.20;;;;;;;2.92;60.16;95189.31;5008672;28;20669;-64
2023/01/09 00:59:09;;;;;;;38.87;31.17;;;;;;;2.99;59.79;95185.34;5004274;28;20258;-67
2023/01/09 01:01:35;;;;;;;43.30;31.70;;;;;;;2.99;59.72;95183.56;5023418;28;20234;-67
2023/01/09 01:07:37;;;;;;;38.80;31.13;;;;;;;2.94;60.23;95184.81;5013184;28;20179;-68
2023/01/09 01:09:29;;;;;;;36.80;28.87;;;;;;;2.93;60.95;95193.56;5010240;28;20256;-67
2023/01/09 01:11:55;;;;;;;37.27;28.77;;;;;;;2.94;60.52;95190.88;5008412;28;20305;-67
2023/01/09 01:14:20;;;;;;;37.93;29.50;;;;;;;2.92;60.39;95176.31;5010029;28;20223;-67
2023/01/09 01:16:45;;;;;;;36.43;27.67;;;;;;;2.97;60.82;95174.25;5006547;28;20219;-67
2023/01/09 01:19:11;;;;;;;40.17;29.30;;;;;;;3.08;60.19;95172.59;5014277;28;20204;-66
2023/01/09 01:21:37;;;;;;;36.77;28.87;;;;;;;2.95;60.03;95170.91;5010266;28;20194;-67
2023/01/09 01:24:02;;;;;;;37.90;28.80;;;;;;;2.85;60.45;95166.31;5000869;28;20227;-67
2023/01/09 01:26:28;;;;;;;34.37;27.40;;;;;;;2.87;60.10;95161.03;4993300;28;20231;-67
2023/01/09 01:28:53;;;;;;;31.87;27.60;;;;;;;2.94;60.32;95174.44;4989888;28;20220;-67
2023/01/09 01:31:18;;;;;;;34.80;28.33;;;;;;;2.97;60.58;95164.69;4985141;28;20255;-67
2023/01/09 01:33:44;;;;;;;36.97;29.57;;;;;;;2.99;61.09;95160.19;4987049;28;20200;-67
2023/01/09 01:36:10;;;;;;;33.50;27.87;;;;;;;3.03;60.54;95158.25;5002717;28;20311;-67
2023/01/09 01:38:35;;;;;;;37.13;28.87;;;;;;;2.95;60.21;95158.75;4985336;28;20225;-67
2023/01/09 01:41:01;;;;;;;36.07;29.40;;;;;;;3.06;60.45;95155.44;4991762;28;20235;-67
2023/01/09 01:43:27;;;;;;;36.17;29.27;;;;;;;3.12;60.74;95152.41;4990802;28;20227;-67
2023/01/09 01:45:52;;;;;;;34.87;29.17;;;;;;;3.14;60.24;95150.56;4989468;28;20187;-67
2023/01/09 01:48:25;;;;;;;35.47;28.13;;;;;;;3.01;60.05;95145.34;5004263;28;20249;-67
2023/01/09 01:50:58;;;;;;;38.70;28.63;;;;;;;2.90;60.08;95154.78;5010322;28;20225;-67
2023/01/09 01:53:31;;;;;;;38.67;29.83;;;;;;;2.80;60.50;95141.56;4999458;28;20224;-67
2023/01/09 01:56:16;;;;;;;36.63;29.10;;;;;;;2.78;60.24;95128.72;4991642;28;20238;-66
2023/01/09 01:58:51;;;;;;;34.57;27.83;;;;;;;2.66;60.55;95132.09;5002418;28;20220;-66
2023/01/09 02:01:17;;;;;;;38.03;28.17;;;;;;;2.82;60.10;95129.34;4987829;28;20237;-66
2023/01/09 02:03:44;;;;;;;35.20;27.80;;;;;;;2.69;60.60;95118.09;5009080;28;20183;-66
2023/01/09 02:06:11;;;;;;;36.03;28.07;;;;;;;2.73;60.07;95125.59;5020288;28;20305;-67
2023/01/09 02:08:36;;;;;;;33.90;27.97;;;;;;;2.77;59.87;95118.41;5009476;28;20227;-67
2023/01/09 02:11:03;;;;;;;35.93;28.57;;;;;;;2.72;60.15;95113.53;5025162;28;20230;-67
2023/01/09 02:13:31;;;;;;;34.77;28.20;;;;;;;2.60;60.67;95114.34;5009655;28;20223;-67
2023/01/09 02:16:09;;;;;;;32.73;26.67;;;;;;;2.67;60.98;95110.41;5008751;28;20264;-66
2023/01/09 02:18:54;;;;;;;34.00;27.00;;;;;;;2.62;61.40;95113.31;5014810;28;20207;-66
2023/01/09 02:21:33;;;;;;;32.43;24.53;;;;;;;2.70;61.56;95117.16;5010009;28;20286;-66
2023/01/09 02:24:27;;;;;;;33.13;26.17;;;;;;;2.70;61.40;95120.59;4992541;28;20290;-66
2023/01/09 02:27:29;;;;;;;35.70;27.43;;;;;;;2.71;61.07;95114.47;5003662;28;20227;-66
2023/01/09 02:30:25;;;;;;;33.67;27.43;;;;;;;2.76;60.80;95103.78;5019574;28;20223;-66
2023/01/09 02:33:07;;;;;;;33.30;26.70;;;;;;;2.67;60.58;95117.34;5005637;28;20222;-67
2023/01/09 02:35:51;;;;;;;34.67;28.40;;;;;;;2.18;62.08;95114.44;5019317;28;20231;-67
2023/01/09 02:38:40;;;;;;;34.10;27.07;;;;;;;1.99;62.71;95104.41;5021487;28;20234;-66
2023/01/09 02:41:37;;;;;;;36.27;26.03;;;;;;;2.04;61.61;95101.53;5021435;28;20231;-67
2023/01/09 02:44:29;;;;;;;31.37;25.53;;;;;;;2.27;61.02;95102.63;4969558;28;20267;-66
2023/01/09 02:47:26;;;;;;;29.80;25.37;;;;;;;2.25;61.19;95101.91;4950676;28;20227;-66
2023/01/09 02:50:01;;;;;;;29.33;25.47;;;;;;;2.18;61.84;95108.41;4972097;28;20231;-66
2023/01/09 02:52:43;;;;;;;36.07;30.27;;;;;;;1.78;63.41;95100.56;4969494;28;20227;-66
2023/01/09 02:55:45;;;;;;;35.93;28.37;;;;;;;2.02;63.17;95095.59;4970204;28;20271;-67
2023/01/09 02:58:35;;;;;;;33.40;27.00;;;;;;;2.20;62.29;95107.38;4969803;28;20212;-67
2023/01/09 03:01:01;;;;;;;36.27;27.97;;;;;;;2.11;61.90;95105.41;4954114;28;20316;-67
2023/01/09 03:04:02;;;;;;;32.43;27.20;;;;;;;2.18;61.71;95100.63;4953398;28;20251;-68
2023/01/09 03:06:45;;;;;;;33.43;26.40;;;;;;;2.25;61.49;95098.50;4897516;29;20223;-69
2023/01/09 03:09:22;;;;;;;38.67;28.63;;;;;;;2.25;61.45;95098.50;4882007;29;20222;-69
2023/01/09 03:12:20;;;;;;;34.10;27.80;;;;;;;2.31;61.09;95103.28;4880827;29;20248;-68
2023/01/09 03:14:50;;;;;;;35.40;28.43;;;;;;;2.25;61.38;95090.72;4878346;29;20231;-67
2023/01/09 03:17:24;;;;;;;33.57;27.27;;;;;;;2.25;61.59;95094.13;4878053;29;20232;-68
2023/01/09 03:19:53;;;;;;;33.93;27.63;;;;;;;2.24;61.40;95102.00;4877986;29;20235;-68
2023/01/09 03:22:19;;;;;;;33.50;27.30;;;;;;;2.31;61.22;95103.28;4882611;29;20190;-67
2023/01/09 03:24:44;;;;;;;35.50;27.70;;;;;;;2.30;61.73;95102.44;4895632;29;20213;-67
2023/01/09 03:27:10;;;;;;;31.47;26.73;;;;;;;2.23;61.20;95100.34;4898953;29;20226;-67
2023/01/09 03:29:36;;;;;;;31.77;27.50;;;;;;;2.27;61.34;95099.19;4898170;29;20230;-67
2023/01/09 03:32:02;;;;;;;32.40;28.10;;;;;;;2.28;60.91;95096.53;4897621;29;20233;-67
2023/01/09 03:34:27;;;;;;;37.43;28.83;;;;;;;2.06;61.68;95085.84;4893787;29;20233;-67
2023/01/09 03:36:53;;;;;;;33.57;28.67;;;;;;;2.14;61.76;95101.78;4916425;29;20194;-68
2023/01/09 03:39:18;;;;;;;34.10;28.17;;;;;;;2.13;61.88;95098.31;4899517;29;20298;-68
2023/01/09 03:41:43;;;;;;;35.50;28.60;;;;;;;2.14;61.32;95106.97;4920998;29;20229;-68
2023/01/09 03:44:09;;;;;;;34.37;27.97;;;;;;;1.99;61.50;95095.78;4933608;28;20267;-68
2023/01/09 03:46:34;;;;;;;35.57;29.07;;;;;;;2.12;61.15;95093.25;4933424;29;20228;-67
2023/01/09 03:49:00;;;;;;;35.43;28.30;;;;;;;2.07;61.31;95088.34;4931979;29;20185;-67
2023/01/09 03:51:25;;;;;;;32.57;26.80;;;;;;;2.01;61.47;95095.72;4975850;28;20721;-67
2023/01/09 03:53:51;;;;;;;36.33;26.90;;;;;;;1.95;61.68;95100.34;5002454;28;20231;-67
2023/01/09 03:56:16;;;;;;;33.27;26.87;;;;;;;1.97;62.13;95097.66;5009917;28;20233;-68
2023/01/09 03:58:42;;;;;;;32.97;27.57;;;;;;;1.99;61.84;95101.81;5004347;28;20275;-68
2023/01/09 04:01:11;;;;;;;34.17;26.97;;;;;;;1.94;62.01;95097.84;5005327;28;20222;-68
2023/01/09 04:03:37;;;;;;;30.67;26.20;;;;;;;2.08;61.99;95097.78;5020187;28;20195;-68
2023/01/09 04:06:02;;;;;;;35.10;27.93;;;;;;;2.08;62.03;95095.19;4997225;28;20226;-68
2023/01/09 04:08:28;;;;;;;36.23;28.23;;;;;;;1.95;62.19;95092.56;4999278;28;20278;-68
2023/01/09 04:10:53;;;;;;;33.00;27.97;;;;;;;1.96;62.39;95096.00;5011980;28;20218;-69
2023/01/09 04:13:18;;;;;;;34.57;26.37;;;;;;;2.05;62.07;95103.19;5006085;28;20265;-69
2023/01/09 04:15:44;;;;;;;32.83;26.37;;;;;;;1.99;61.92;95098.38;5006190;28;20182;-69
2023/01/09 04:18:09;;;;;;;31.87;25.93;;;;;;;2.01;61.61;95087.94;5000099;28;20241;-69
2023/01/09 04:20:35;;;;;;;32.53;26.37;;;;;;;1.91;62.05;95096.28;4991668;28;20245;-69
2023/01/09 04:23:00;;;;;;;33.57;26.97;;;;;;;1.99;62.00;95082.84;4996333;28;20314;-69
2023/01/09 04:25:26;;;;;;;31.47;25.87;;;;;;;2.02;61.78;95092.19;5006022;28;20223;-67
2023/01/09 04:27:52;;;;;;;34.07;28.17;;;;;;;1.65;62.98;95091.91;5003436;28;20270;-68
2023/01/09 04:30:17;;;;;;;34.50;26.83;;;;;;;1.75;62.24;95087.81;5006792;28;20219;-69
2023/01/09 04:32:43;;;;;;;29.97;26.27;;;;;;;1.74;62.63;95084.38;4985832;28;20229;-68
2023/01/09 04:35:08;;;;;;;32.30;26.27;;;;;;;1.70;62.29;95088.09;5006104;28;20235;-69
2023/01/09 04:37:35;;;;;;;30.87;25.63;;;;;;;1.78;62.23;95087.63;5003409;28;20219;-69
2023/01/09 04:40:06;;;;;;;32.20;27.43;;;;;;;1.71;61.99;95088.91;4981716;28;20183;-69
2023/01/09 04:42:32;;;;;;;35.23;27.13;;;;;;;1.85;61.83;95085.47;4997887;28;20247;-69
2023/01/09 04:44:57;;;;;;;37.37;26.93;;;;;;;1.82;61.86;95075.28;4999913;28;20220;-69
2023/01/09 04:47:23;;;;;;;34.10;27.63;;;;;;;1.75;61.61;95070.50;5005442;28;20239;-69
2023/01/09 04:49:48;;;;;;;36.97;28.53;;;;;;;1.71;62.18;95069.03;5011368;28;20329;-69
2023/01/09 04:52:14;;;;;;;33.60;27.60;;;;;;;1.60;62.63;95081.81;5003343;28;20245;-69
2023/01/09 04:54:39;;;;;;;33.73;28.47;;;;;;;1.68;62.71;95074.38;5002736;28;20215;-69
2023/01/09 04:57:05;;;;;;;33.43;27.30;;;;;;;1.74;62.10;95068.84;5008839;28;20226;-69
2023/01/09 04:59:30;;;;;;;34.33;27.97;;;;;;;1.79;62.31;95076.31;4995731;28;20321;-70
2023/01/09 05:01:57;;;;;;;37.40;29.40;;;;;;;1.70;62.26;95059.56;5020907;28;20223;-69
2023/01/09 05:04:23;;;;;;;33.67;27.80;;;;;;;1.69;62.46;95072.66;4998453;28;20232;-69
2023/01/09 05:06:49;;;;;;;35.60;27.33;;;;;;;1.62;62.54;95063.59;5016398;28;20187;-69
2023/01/09 05:09:14;;;;;;;34.30;27.47;;;;;;;1.59;62.35;95069.78;5011326;28;20230;-69
2023/01/09 05:11:39;;;;;;;35.73;29.30;;;;;;;1.50;63.43;95066.03;5004664;28;20231;-69
2023/01/09 05:14:05;;;;;;;33.77;26.57;;;;;;;1.58;62.84;95068.16;5009059;28;20226;-68
2023/01/09 05:16:30;;;;;;;31.20;27.63;;;;;;;1.75;62.14;95074.84;5010800;28;20279;-69
2023/01/09 05:18:56;;;;;;;31.40;27.23;;;;;;;1.80;62.07;95077.16;5008871;28;20258;-69
2023/01/09 05:21:23;;;;;;;33.40;28.43;;;;;;;1.79;62.31;95075.47;5018074;28;20229;-69
2023/01/09 05:23:49;;;;;;;34.40;27.30;;;;;;;1.75;62.14;95086.03;5007228;28;20226;-69
2023/01/09 05:26:14;;;;;;;36.53;28.97;;;;;;;1.64;62.52;95087.66;5002746;28;20227;-69
2023/01/09 05:28:39;;;;;;;34.63;29.77;;;;;;;1.46;63.31;95085.28;4997823;28;20267;-69
2023/01/09 05:31:05;;;;;;;36.97;29.17;;;;;;;1.23;63.96;95094.47;4990341;28;20179;-68
2023/01/09 05:33:30;;;;;;;41.47;31.50;;;;;;;1.25;63.50;95096.94;4992180;28;20219;-68
2023/01/09 05:35:56;;;;;;;36.13;29.07;;;;;;;1.47;62.70;95075.72;4989000;28;20230;-68
2023/01/09 05:38:21;;;;;;;43.97;33.93;;;;;;;1.63;62.77;95084.25;5006201;28;20235;-69
2023/01/09 05:40:47;;;;;;;45.43;32.37;;;;;;;1.62;62.88;95068.78;4986484;28;20223;-69
2023/01/09 05:43:12;;;;;;;47.83;33.90;;;;;;;1.62;63.10;95074.78;4991393;28;20191;-66
2023/01/09 05:45:37;;;;;;;44.60;33.37;;;;;;;1.68;63.32;95073.56;5022511;28;20176;-67
2023/01/09 05:48:03;;;;;;;48.00;33.93;;;;;;;1.71;63.11;95076.81;5001875;28;20219;-67
2023/01/09 05:50:28;;;;;;;45.53;34.73;;;;;;;1.70;63.11;95066.53;5003829;28;20219;-68
2023/01/09 05:52:54;;;;;;;48.97;36.43;;;;;;;1.73;62.88;95063.75;5013577;28;20227;-68
2023/01/09 05:55:19;;;;;;;47.47;34.40;;;;;;;1.77;62.89;95053.09;5020798;28;20248;-68
2023/01/09 05:57:45;;;;;;;40.17;31.60;;;;;;;1.68;63.40;95064.03;5012399;28;20190;-68
2023/01/09 06:00:11;;;;;;;41.87;33.70;;;;;;;1.87;62.83;95062.84;5018089;28;20250;-67
2023/01/09 06:02:36;;;;;;;38.53;30.07;;;;;;;1.85;63.11;95056.97;4997574;28;20220;-67
2023/01/09 06:05:02;;;;;;;36.33;29.80;;;;;;;1.83;63.50;95056.22;4996772;28;20361;-67
2023/01/09 06:07:27;;;;;;;39.73;31.83;;;;;;;1.87;63.47;95070.63;5004165;28;20241;-67
2023/01/09 06:09:53;;;;;;;43.77;34.00;;;;;;;1.83;63.11;95062.22;5018626;28;20175;-67
2023/01/09 06:12:18;;;;;;;42.90;32.50;;;;;;;1.83;62.98;95057.03;5005503;28;20225;-68
2023/01/09 06:14:44;;;;;;;43.80;34.17;;;;;;;1.94;62.94;95067.56;5012481;28;20320;-67
2023/01/09 06:17:10;;;;;;;51.60;35.53;;;;;;;1.91;62.69;95064.34;5019509;28;20227;-68
2023/01/09 06:19:35;;;;;;;43.87;33.03;;;;;;;1.71;62.68;95057.81;5009525;28;20230;-63
2023/01/09 06:22:01;;;;;;;48.20;34.10;;;;;;;1.70;63.20;95067.34;5023458;28;20191;-64
2023/01/09 06:24:26;;;;;;;46.37;32.73;;;;;;;1.66;63.46;95065.06;5005118;28;20320;-66
2023/01/09 06:26:52;;;;;;;55.13;38.40;;;;;;;1.68;63.33;95052.81;5018089;28;20223;-66
2023/01/09 06:29:17;;;;;;;47.10;34.90;;;;;;;1.79;63.26;95060.75;5007356;28;20385;-66
2023/01/09 06:31:43;;;;;;;52.23;35.60;;;;;;;1.88;63.00;95056.75;4993018;28;20218;-70
2023/01/09 06:34:08;;;;;;;50.70;35.17;;;;;;;1.97;62.76;95048.38;5002300;28;20214;-70
2023/01/09 06:36:34;;;;;;;47.70;36.37;;;;;;;2.03;62.39;95053.16;5005574;28;20183;-68
2023/01/09 06:38:59;;;;;;;47.50;35.20;;;;;;;2.02;62.64;95054.09;5006766;28;20219;-69
2023/01/09 06:41:25;;;;;;;46.70;34.87;;;;;;;2.16;62.32;95048.84;5007892;28;20210;-68
2023/01/09 06:43:51;;;;;;;44.70;34.13;;;;;;;2.26;62.36;95050.84;5014324;28;20227;-68
2023/01/09 06:46:16;;;;;;;53.47;36.27;;;;;;;2.24;62.49;95044.91;5005825;28;20201;-67
2023/01/09 06:48:42;;;;;;;53.80;37.27;;;;;;;2.33;62.11;95054.72;5005135;28;20195;-66
2023/01/09 06:51:07;;;;;;;50.17;35.50;;;;;;;2.36;62.16;95057.94;5009083;28;20226;-66
2023/01/09 06:53:33;;;;;;;53.00;36.33;;;;;;;2.36;62.08;95055.34;5023280;28;20223;-67
2023/01/09 06:56:01;;;;;;;53.53;36.90;;;;;;;2.18;62.58;95051.34;4999328;28;20216;-66
2023/01/09 06:58:26;;;;;;;63.33;36.97;;;;;;;2.40;62.37;95055.94;4998090;28;20222;-65
2023/01/09 07:00:52;;;;;;;52.97;36.63;;;;;;;2.48;62.05;95058.88;5026940;28;20233;-64
2023/01/09 07:03:21;;;;;;;51.97;35.60;;;;;;;2.54;62.10;95052.44;4998398;28;20293;-67
2023/01/09 07:05:48;;;;;;;47.40;33.97;;;;;;;2.63;61.65;95054.44;4978800;28;20246;-67
2023/01/09 07:08:13;;;;;;;59.43;34.37;;;;;;;2.65;61.64;95050.81;4987575;28;20236;-67
2023/01/09 07:10:40;;;;;;;50.90;36.63;;;;;;;2.72;61.61;95046.00;5003284;28;20222;-66
2023/01/09 07:13:06;;;;;;;51.70;39.03;;;;;;;2.80;61.19;95050.69;5020241;28;20253;-65
2023/01/09 07:15:31;;;;;;;41.43;31.57;;;;;;;2.79;61.09;95055.06;5003925;28;20206;-66
2023/01/09 07:17:56;;;;;;;39.00;29.13;;;;;;;2.75;61.69;95039.78;5003188;28;20302;-66
2023/01/09 07:20:22;;;;;;;37.83;28.57;;;;;;;2.84;61.50;95045.19;5000356;28;20223;-67
2023/01/09 07:22:47;;;;;;;45.30;30.23;;;;;;;2.96;60.96;95046.13;5024315;28;20230;-67
2023/01/09 07:25:13;;;;;;;38.87;28.07;;;;;;;3.11;60.87;95051.22;5004925;28;20333;-67
2023/01/09 07:27:38;;;;;;;40.63;31.47;;;;;;;3.18;60.82;95044.63;5006965;28;20191;-67
2023/01/09 07:30:05;;;;;;;48.00;31.27;;;;;;;3.27;60.83;95047.44;5000876;28;20223;-68
2023/01/09 07:32:32;;;;;;;41.67;32.80;;;;;;;3.30;60.70;95049.00;5008306;28;20242;-67
2023/01/09 07:34:57;;;;;;;39.57;30.47;;;;;;;3.29;61.10;95040.38;5001450;28;20227;-66
2023/01/09 07:37:23;;;;;;;34.53;28.63;;;;;;;2.92;62.64;95043.84;5005339;28;20273;-67
2023/01/09 07:39:49;;;;;;;38.00;27.47;;;;;;;3.29;61.78;95047.34;5002199;28;20236;-67
2023/01/09 07:42:15;;;;;;;35.37;25.30;;;;;;;3.47;60.95;95053.00;4998283;28;20318;-67
2023/01/09 07:44:41;;;;;;;32.87;24.97;;;;;;;3.66;60.81;95048.19;4994374;28;20223;-66
2023/01/09 07:47:06;;;;;;;29.77;24.80;;;;;;;3.70;60.54;95048.78;5003892;28;20378;-68
2023/01/09 07:49:32;;;;;;;27.50;23.20;;;;;;;3.80;60.76;95044.59;5002733;28;20229;-68
2023/01/09 07:51:57;;;;;;;32.50;24.50;;;;;;;3.88;60.65;95065.69;5001075;28;20216;-67
2023/01/09 07:54:23;;;;;;;30.07;24.40;;;;;;;4.01;60.47;95068.25;5011888;28;20323;-66
2023/01/09 07:56:48;;;;;;;28.77;23.20;;;;;;;4.17;60.00;95065.34;5006503;28;20265;-66
2023/01/09 07:59:14;;;;;;;33.50;23.50;;;;;;;4.34;59.74;95064.94;5016001;28;20226;-67
2023/01/09 08:01:39;;;;;;;32.07;23.13;;;;;;;4.42;59.90;95064.38;5001865;28;20231;-67
2023/01/09 08:04:05;;;;;;;28.67;21.77;;;;;;;4.52;59.94;95064.53;5010188;28;20187;-67
2023/01/09 08:06:30;;;;;;;32.13;24.20;;;;;;;4.78;59.35;95075.59;5020734;28;20198;-68
2023/01/09 08:08:56;;;;;;;30.70;23.07;;;;;;;4.84;59.41;95068.16;5005201;28;20242;-68
2023/01/09 08:11:22;;;;;;;29.57;25.20;;;;;;;5.02;59.61;95070.31;4998121;28;20290;-66
2023/01/09 08:13:47;;;;;;;33.67;26.27;;;;;;;5.12;59.22;95073.88;5000763;28;20253;-66
2023/01/09 08:16:13;;;;;;;35.73;26.43;;;;;;;5.11;59.64;95074.03;4982837;28;20215;-67
2023/01/09 08:18:39;;;;;;;29.73;23.37;;;;;;;5.06;59.11;95066.53;5006665;28;20191;-66
2023/01/09 08:21:04;;;;;;;29.97;24.10;;;;;;;5.05;60.05;95067.47;5003091;28;20230;-67
2023/01/09 08:23:30;;;;;;;29.50;23.17;;;;;;;5.14;59.25;95069.38;5003116;28;20321;-65
2023/01/09 08:25:55;;;;;;;31.63;23.57;;;;;;;5.06;59.84;95067.38;5011915;28;20231;-66
2023/01/09 08:28:20;;;;;;;31.27;24.03;;;;;;;5.20;59.61;95060.25;5002833;28;20198;-66
2023/01/09 08:30:46;;;;;;;33.60;24.13;;;;;;;5.36;59.43;95063.34;5013516;28;20241;-65
2023/01/09 08:33:12;;;;;;;31.70;23.63;;;;;;;5.24;60.60;95074.75;5003898;28;20239;-66
2023/01/09 08:35:37;;;;;;;37.13;24.67;;;;;;;5.43;60.09;95064.53;5000220;28;20236;-66
2023/01/09 08:38:03;;;;;;;29.60;23.77;;;;;;;5.52;59.53;95060.38;4995400;28;20241;-67
2023/01/09 08:40:28;;;;;;;31.40;24.77;;;;;;;5.65;59.61;95068.06;5004926;28;20258;-67
2023/01/09 08:48:21;;;;;;;38.70;29.70;;;;;;;5.87;59.22;95056.75;5009544;28;20233;-67
2023/01/09 08:50:47;;;;;;;39.43;29.03;;;;;;;5.92;58.91;95059.84;5006234;28;20223;-67
2023/01/09 08:53:14;;;;;;;37.97;28.87;;;;;;;6.02;58.98;95050.34;5006403;28;20230;-66
2023/01/09 08:55:39;;;;;;;32.27;25.93;;;;;;;6.21;59.00;95061.94;5002715;28;20231;-67
2023/01/09 08:58:05;;;;;;;35.40;27.27;;;;;;;6.32;57.84;95057.50;4982934;28;20283;-67
2023/01/09 09:00:30;;;;;;;47.27;32.83;;;;;;;6.35;57.65;95046.78;4990947;28;20238;-67
2023/01/09 09:02:57;;;;;;;39.60;30.73;;;;;;;6.29;58.53;95034.25;4984710;28;20220;-68
2023/01/09 09:05:24;;;;;;;37.33;28.00;;;;;;;6.44;58.08;95034.75;4998389;28;20218;-66
2023/01/09 09:07:54;;;;;;;38.73;28.63;;;;;;;6.56;57.49;95025.91;5020856;28;20222;-68
2023/01/09 09:10:21;;;;;;;36.67;28.87;;;;;;;6.48;57.58;95025.72;5023212;28;20191;-67
2023/01/09 09:12:47;;;;;;;34.10;26.47;;;;;;;6.62;57.33;95032.41;5011342;28;20274;-68
2023/01/09 09:15:22;;;;;;;35.60;25.47;;;;;;;6.67;57.07;95019.78;5001578;28;20238;-68
2023/01/09 09:17:54;;;;;;;32.90;25.77;;;;;;;6.73;56.69;95014.06;5015984;28;20222;-68
2023/01/09 09:20:22;;;;;;;35.33;27.63;;;;;;;6.73;56.94;95008.00;5018831;28;20259;-68
2023/01/09 09:22:47;;;;;;;38.37;29.17;;;;;;;6.80;57.04;95007.38;5010095;28;20234;-66
2023/01/09 09:25:14;;;;;;;36.07;29.77;;;;;;;6.69;57.24;95006.63;5011647;28;20182;-68
2023/01/09 09:27:39;;;;;;;38.87;30.87;;;;;;;6.89;56.78;94997.91;5008345;28;20222;-67
2023/01/09 09:30:06;;;;;;;35.93;30.47;;;;;;;7.04;56.09;94995.78;5005976;28;20291;-67
2023/01/09 09:32:31;;;;;;;43.37;33.03;;;;;;;7.14;56.47;94995.84;5006122;28;20234;-67
2023/01/09 09:34:57;;;;;;;42.40;31.60;;;;;;;7.10;56.31;94979.56;4999561;28;20239;-68
2023/01/09 09:37:23;;;;;;;45.93;31.40;;;;;;;7.17;56.38;94974.66;4986531;28;20218;-68
2023/01/09 09:39:48;;;;;;;40.67;30.97;;;;;;;7.42;55.80;94986.44;4998307;28;20187;-67
2023/01/09 09:45:15;;;;;;;32.50;26.63;;;;;;;7.31;55.65;94958.59;4991806;28;20305;-66
2023/01/09 09:47:47;;;;;;;28.67;22.33;;;;;;;7.54;55.02;94951.38;5016269;28;20251;-65
2023/01/09 09:50:19;;;;;;;35.13;24.37;;;;;;;7.69;54.92;94946.56;5019077;28;20246;-65
2023/01/09 09:53:09;;;;;;;28.17;24.13;;;;;;;7.81;54.62;94935.00;5024861;28;20651;-67
2023/01/09 09:55:41;;;;;;;27.90;22.40;;;;;;;7.83;54.59;94929.63;5007578;28;20236;-66
2023/01/09 09:58:25;;;;;;;26.57;21.90;;;;;;;7.84;53.50;94923.44;5006332;28;20214;-66
2023/01/09 10:00:52;;;;;;;25.83;20.30;;;;;;;7.86;53.30;94916.28;5021931;28;20238;-66
2023/01/09 10:03:42;;;;;;;28.33;21.50;;;;;;;7.93;53.30;94907.72;4999426;28;20259;-65
2023/01/09 10:06:10;;;;;;;26.67;18.83;;;;;;;7.98;53.38;94886.34;4999858;28;20281;-66
2023/01/09 10:08:56;;;;;;;22.17;17.20;;;;;;;8.06;53.01;94883.88;5004465;28;20227;-65
2023/01/09 10:11:41;;;;;;;24.70;18.60;;;;;;;8.12;53.46;94862.34;5003121;28;20231;-65
2023/01/09 10:14:09;;;;;;;24.90;21.13;;;;;;;8.09;53.71;94861.81;4985300;28;20944;-65
2023/01/09 10:16:53;;;;;;;28.40;21.93;;;;;;;8.16;53.92;94868.97;5006600;28;20227;-66
2023/01/09 10:19:33;;;;;;;30.57;23.03;;;;;;;8.34;54.04;94861.22;5003104;28;20623;-65
2023/01/09 10:22:14;;;;;;;29.67;23.37;;;;;;;8.31;54.20;94850.19;5007676;28;20198;-66
2023/01/09 10:24:51;;;;;;;27.93;23.00;;;;;;;8.39;54.27;94845.94;5012248;28;20215;-66
2023/01/09 10:27:29;;;;;;;29.67;23.70;;;;;;;8.53;53.31;94839.41;5025142;28;20548;-66
2023/01/09 10:30:20;;;;;;;25.30;21.17;;;;;;;8.51;53.37;94838.72;5019729;28;20231;-66
2023/01/09 10:32:55;;;;;;;25.33;20.07;;;;;;;8.50;52.81;94838.84;5001988;28;20226;-66
2023/01/09 10:35:26;;;;;;;27.83;20.67;;;;;;;8.54;52.73;94829.75;5004215;28;20257;-66
2023/01/09 10:37:54;;;;;;;24.37;19.10;;;;;;;8.75;52.52;94830.34;5005526;28;20261;-67
2023/01/09 10:40:34;;;;;;;22.50;18.07;;;;;;;9.09;51.34;94840.25;4987876;28;20222;-66
2023/01/09 10:43:11;;;;;;;23.07;16.90;;;;;;;9.19;50.78;94827.88;5003651;28;20261;-67
2023/01/09 10:46:02;;;;;;;20.40;16.60;;;;;;;9.10;50.32;94815.66;5015724;28;20237;-66
2023/01/09 10:48:30;;;;;;;21.60;17.33;;;;;;;9.07;50.46;94810.72;5001030;28;20231;-67
2023/01/09 10:50:56;;;;;;;18.87;15.03;;;;;;;9.05;51.69;94807.41;5001823;28;20248;-66
2023/01/09 10:53:26;;;;;;;19.77;15.63;;;;;;;9.19;50.64;94806.06;4997533;28;20236;-67
2023/01/09 10:56:03;;;;;;;19.77;16.37;;;;;;;9.48;49.66;94806.69;5001039;28;20244;-67
2023/01/09 10:58:29;;;;;;;19.13;15.57;;;;;;;9.64;49.15;94797.31;4983731;28;20230;-67
2023/01/09 11:00:57;;;;;;;21.73;16.47;;;;;;;9.71;49.25;94786.06;4989732;28;20247;-67
2023/01/09 11:03:26;;;;;;;21.67;15.23;;;;;;;9.85;48.82;94773.34;4984959;28;20231;-67
2023/01/09 11:05:56;;;;;;;18.27;14.40;;;;;;;9.86;48.92;94767.97;5004572;28;20337;-68
2023/01/09 11:08:39;;;;;;;19.80;15.50;;;;;;;10.05;48.40;94771.34;5015076;28;20236;-67
2023/01/09 11:11:04;;;;;;;17.67;15.33;;;;;;;10.27;48.07;94768.25;5004833;28;20230;-67
2023/01/09 11:13:32;;;;;;;20.07;14.93;;;;;;;9.78;48.84;94756.56;4984815;28;20229;-67
2023/01/09 11:16:09;;;;;;;19.33;14.20;;;;;;;10.24;48.27;94763.28;4970793;28;20222;-68
2023/01/09 11:18:46;;;;;;;19.67;15.10;;;;;;;10.44;47.23;94763.88;4978038;28;20227;-68
2023/01/09 11:21:28;;;;;;;19.73;14.50;;;;;;;10.62;46.91;94773.50;4992664;28;20227;-68
2023/01/09 11:23:55;;;;;;;20.73;14.90;;;;;;;10.42;47.13;94760.59;4992111;28;20226;-68
2023/01/09 11:26:48;;;;;;;20.20;15.43;;;;;;;10.01;47.83;94762.13;4988113;28;20223;-67
2023/01/09 11:29:15;;;;;;;20.23;15.00;;;;;;;10.05;47.91;94756.44;4999314;28;20254;-69
2023/01/09 11:31:49;;;;;;;17.73;15.23;;;;;;;9.85;48.70;94758.41;4984967;28;20223;-68
2023/01/09 11:34:16;;;;;;;18.17;14.27;;;;;;;9.91;48.39;94751.72;5002938;28;20289;-70
2023/01/09 11:36:43;;;;;;;19.23;15.43;;;;;;;9.95;48.08;94758.34;4990476;28;20252;-68
2023/01/09 11:39:23;;;;;;;17.00;14.87;;;;;;;9.89;48.42;94745.78;4986470;28;20310;-67
2023/01/09 11:41:57;;;;;;;18.03;15.70;;;;;;;9.91;48.19;94742.03;4997537;28;20227;-67
2023/01/09 11:44:23;;;;;;;18.90;15.43;;;;;;;9.93;48.51;94739.28;4994686;28;20233;-67